• Join FlightAware (Why Join?)
  • Login
  • US Flag 
08:27AM EDT


 

Airport Tracker/Info


-or-


 

Live Flight TrackerFlight Track Log ✈ FLG3616 ✈ 22-Aug-2013 ✈ KAZO - KDTW

Flight Track Log - Related Links

Times and Time Zones

All times are in EDT time to prevent confusion due to time zone crossing. See the FLG3616 flight status page for this flight to view local times or setup timezone preferences in your user account.

Time Position Orientation Groundspeed Altitude Reporting Facility
EDT Latitude Longitude Course Direction KTS MPH feet Rate Location/Type
05:31PM 42.2608 -85.5511 North 124 143 2,200  Level Chicago Center
05:32PM 42.3172 -85.5442 North 198 228 4,100 1,980 Climbing Chicago Center
05:33PM 42.3889 -85.5369 North 248 285 6,400 2,460 Climbing Chicago Center
05:34PM 42.4644 -85.5278 North 268 308 9,200 2,160 Climbing Chicago Center
05:35PM 42.5458 -85.5200 North 287 330 10,900 2,040 Climbing Chicago Center
05:36PM 42.6567 -85.5067 North 332 382 13,500 1,980 Climbing Chicago Center
05:37PM 42.7361 -85.4531 26° Northeast 345 397 15,000 720 Climbing Chicago Center
05:38PM 42.7517 -85.3150 81° East 373 429 15,000  Level Chicago Center
05:39PM 42.7603 -85.1794 85° East 363 418 15,000  Level Chicago Center
05:40PM 42.7681 -85.0447 85° East 360 414 15,000 -180 Level Chicago Center
05:41PM 42.7775 -84.8797 85° East 365 420 14,700 -660 Descending Chicago Center
05:42PM 42.7858 -84.7456 85° East 358 412 13,700 -1,020 Descending Chicago Center
05:44PM 42.7933 -84.6144 85° East 351 404 12,700 -840 Descending Chicago Center
05:45PM 42.8000 -84.4731 86° East 369 425 12,000 -420 Descending Chicago Center
05:45PM 42.8069 -84.3558 85° East 367 422 12,000  Level Cleveland Center
05:46PM 42.8111 -84.2286 87° East 367 422 12,000  Level Cleveland Center
05:47PM 42.8175 -84.0875 86° East 372 428 12,000  Level Cleveland Center
05:48PM 42.8239 -83.9464 86° East 372 428 12,000  Level Cleveland Center
05:49PM 42.8297 -83.8108 87° East 366 421 12,000 -180 Level Cleveland Center
05:50PM 42.7869 -83.7008 118° Southeast 302 348 11,700 -720 Descending Cleveland Center
05:51PM 42.7089 -83.6575 158° South 275 316 10,600 -960 Descending Cleveland Center
05:52PM 42.6458 -83.6008 147° Southeast 275 316 9,800 660 Descending Cleveland Center
05:53PM 42.6017 -83.5281 129° Southeast 262 302 12,000 -1,200 Climbing Cleveland Center
05:54PM 42.5556 -83.4556 131° Southeast 256 295 7,500 -2,520 Descending Cleveland Center
05:56PM 42.4958 -83.3431 126° Southeast 237 273 5,600 -1,140 Descending Cleveland Center
05:57PM 42.4706 -83.2686 115° Southeast 231 266 4,700 -840 Descending Cleveland Center
05:58PM 42.4300 -83.2164 136° Southeast 205 236 4,000 -360 Descending Cleveland Center
05:59PM 42.3736 -83.2194 182° South 200 230 4,000 -480 Level Cleveland Center
06:00PM 42.3356 -83.2517 212° Southwest 192 221 3,200 -1,020 Descending Cleveland Center
06:01PM 42.2825 -83.2886 207° Southwest 183 211 2,100 -900 Descending Cleveland Center
06:02PM 42.2464 -83.3181 211° Southwest 141 162 1,300 -840 Descending Cleveland Center